Time;durP1;ratioP1;P1;durP2;ratioP2;P2;SDS_P1;SDS_P2;PMS_P1;PMS_P2;Temp;Humidity;BMP_temperature;BMP_pressure;BME280_temperature;BME280_humidity;BME280_pressure;Samples;Min_cycle;Max_cycle;Signal;HPM_P1;HPM_P2
2022/05/20 00:01:46;;;;;;;25.58;22.83;;;;;;;13.43;86.13;102148.09;4968417;28;20019;-56
2022/05/20 00:04:11;;;;;;;35.38;27.75;;;;;;;13.49;86.18;102147.47;4968910;28;20026;-56
2022/05/20 00:06:36;;;;;;;32.58;27.70;;;;;;;13.48;86.69;102153.81;4971212;28;20506;-54
2022/05/20 00:09:02;;;;;;;34.78;29.10;;;;;;;13.45;86.49;102157.63;4970699;28;20105;-55
2022/05/20 00:11:27;;;;;;;36.33;29.55;;;;;;;13.42;86.48;102151.75;4967935;28;20076;-56
2022/05/20 00:13:52;;;;;;;33.65;28.25;;;;;;;13.41;86.28;102153.59;4967072;28;20043;-54
2022/05/20 00:16:17;;;;;;;35.83;28.65;;;;;;;13.40;86.75;102149.25;4968511;28;20042;-56
2022/05/20 00:18:43;;;;;;;35.38;29.00;;;;;;;13.41;86.29;102150.94;4968472;28;20023;-56
2022/05/20 00:21:08;;;;;;;32.47;27.38;;;;;;;13.35;86.84;102148.91;4969143;28;20030;-54
2022/05/20 00:23:34;;;;;;;35.83;27.17;;;;;;;13.38;86.47;102147.75;4964824;28;20036;-55
2022/05/20 00:25:59;;;;;;;18.45;16.55;;;;;;;13.32;86.62;102151.88;4968551;28;20027;-56
2022/05/20 00:28:27;;;;;;;27.73;23.77;;;;;;;13.18;86.37;102161.28;4970155;28;20069;-54
2022/05/20 00:30:56;;;;;;;21.02;18.75;;;;;;;13.21;85.92;102155.63;4969254;28;20136;-56
2022/05/20 00:33:22;;;;;;;21.33;17.50;;;;;;;13.19;85.88;102146.94;4970663;28;20027;-56
2022/05/20 00:35:48;;;;;;;47.15;17.42;;;;;;;13.16;86.20;102146.38;4966258;28;20023;-55
2022/05/20 00:38:14;;;;;;;68.25;24.55;;;;;;;13.11;86.68;102144.19;4967943;28;20077;-56
2022/05/20 00:40:41;;;;;;;121.65;23.10;;;;;;;13.07;86.57;102142.00;4968868;28;20109;-55
2022/05/20 00:43:28;;;;;;;30.17;17.63;;;;;;;13.11;86.42;102141.53;4970850;28;20488;-55
2022/05/20 00:45:59;;;;;;;54.35;16.33;;;;;;;12.91;86.47;102154.19;4969669;28;20501;-55
2022/05/20 00:48:25;;;;;;;15.43;12.90;;;;;;;12.88;85.98;102146.50;4968701;28;20113;-55
2022/05/20 00:51:03;;;;;;;16.98;15.10;;;;;;;12.90;86.27;102146.34;4970359;28;20031;-53
2022/05/20 00:53:33;;;;;;;40.72;16.33;;;;;;;12.91;86.27;102138.19;4967329;28;20476;-55
2022/05/20 00:56:01;;;;;;;31.70;17.92;;;;;;;12.88;86.27;102143.81;4968769;28;20038;-55
2022/05/20 00:58:27;;;;;;;28.35;19.35;;;;;;;12.90;86.38;102139.19;4966365;28;20027;-55
2022/05/20 01:00:55;;;;;;;34.95;20.38;;;;;;;12.89;86.36;102136.66;4967446;28;20019;-55
2022/05/20 01:03:25;;;;;;;44.17;22.05;;;;;;;12.88;86.35;102135.81;4967026;28;20034;-55
2022/05/20 01:05:52;;;;;;;36.55;17.67;;;;;;;12.83;86.34;102139.94;4971304;28;20030;-55
2022/05/20 01:08:21;;;;;;;40.20;19.23;;;;;;;12.84;86.52;102131.78;4966987;28;20551;-56
2022/05/20 01:10:47;;;;;;;24.30;16.23;;;;;;;12.83;86.59;102134.63;4971745;28;20019;-55
2022/05/20 01:13:15;;;;;;;99.78;17.60;;;;;;;12.64;86.05;102124.94;4964706;28;20031;-55
2022/05/20 01:15:41;;;;;;;44.10;17.40;;;;;;;12.73;86.28;102126.72;4967006;28;20032;-55
2022/05/20 01:18:08;;;;;;;26.95;17.35;;;;;;;12.75;86.36;102132.72;4964151;28;20034;-53
2022/05/20 01:20:37;;;;;;;28.45;18.15;;;;;;;12.75;86.02;102137.22;4964754;28;20431;-55
2022/05/20 01:23:09;;;;;;;41.13;19.85;;;;;;;12.76;86.22;102138.91;4964960;28;20114;-54
2022/05/20 01:25:35;;;;;;;30.90;21.63;;;;;;;12.76;86.32;102133.56;4965600;28;20034;-53
2022/05/20 01:28:01;;;;;;;38.65;21.33;;;;;;;12.73;85.98;102123.22;4963911;28;20062;-55
2022/05/20 01:30:29;;;;;;;69.88;20.90;;;;;;;12.73;86.11;102123.22;4964740;28;20050;-55
2022/05/20 01:32:54;;;;;;;58.47;20.85;;;;;;;12.70;86.09;102127.84;4963059;28;20038;-53
2022/05/20 01:35:24;;;;;;;80.07;21.10;;;;;;;12.63;86.07;102129.44;4963423;28;20031;-56
2022/05/20 01:37:49;;;;;;;53.72;21.20;;;;;;;12.61;86.04;102125.25;4965004;28;20385;-55
2022/05/20 01:40:15;;;;;;;68.70;23.60;;;;;;;12.65;86.12;102115.97;4966005;28;20085;-56
2022/05/20 01:42:49;;;;;;;77.55;23.25;;;;;;;12.63;86.21;102120.59;4966186;28;20038;-55
2022/05/20 01:45:28;;;;;;;88.20;23.60;;;;;;;12.66;86.93;102109.63;4963856;28;20045;-54
2022/05/20 01:48:04;;;;;;;50.33;23.60;;;;;;;12.66;86.72;102114.97;4964594;28;20042;-55
2022/05/20 01:50:36;;;;;;;67.57;22.33;;;;;;;12.62;86.45;102109.09;4967732;28;20030;-55
2022/05/20 01:53:18;;;;;;;59.25;24.80;;;;;;;12.60;86.76;102108.44;4966363;28;20419;-56
2022/05/20 01:56:09;;;;;;;71.28;25.05;;;;;;;12.56;86.75;102103.56;4966967;28;20056;-53
2022/05/20 01:58:44;;;;;;;50.00;24.65;;;;;;;12.54;86.64;102098.38;4963720;28;20042;-56
2022/05/20 02:01:15;;;;;;;65.35;23.83;;;;;;;12.52;86.90;102103.03;4962339;28;20041;-55
2022/05/20 02:03:46;;;;;;;36.95;24.75;;;;;;;12.56;87.06;102111.56;4962795;28;20034;-55
2022/05/20 02:06:22;;;;;;;77.20;25.08;;;;;;;12.55;87.37;102109.88;4967199;28;20117;-55
2022/05/20 02:08:56;;;;;;;84.65;24.85;;;;;;;12.50;87.42;102118.34;4963566;28;20038;-55
2022/05/20 02:11:54;;;;;;;62.00;26.52;;;;;;;12.46;87.58;102110.81;4962078;28;20030;-55
2022/05/20 02:14:35;;;;;;;59.63;27.88;;;;;;;12.44;87.32;102113.63;4963460;28;20047;-55
2022/05/20 02:17:00;;;;;;;77.93;27.15;;;;;;;12.43;87.62;102106.59;4964545;28;20113;-55
2022/05/20 02:19:38;;;;;;;69.13;25.98;;;;;;;12.44;87.98;102102.13;4965052;28;20154;-55
2022/05/20 02:22:07;;;;;;;51.85;26.60;;;;;;;12.48;87.62;102100.81;4965265;28;20030;-55
2022/05/20 02:24:34;;;;;;;65.32;27.05;;;;;;;12.47;87.92;102094.66;4962409;28;20029;-55
2022/05/20 02:27:04;;;;;;;70.38;25.35;;;;;;;12.41;87.87;102097.91;4968048;28;20637;-55
2022/05/20 02:29:39;;;;;;;61.17;25.20;;;;;;;12.38;88.25;102093.72;4970866;28;20385;-55
2022/05/20 02:32:10;;;;;;;52.63;23.83;;;;;;;12.34;87.72;102102.19;4963615;28;20174;-55
2022/05/20 02:34:35;;;;;;;69.55;24.70;;;;;;;12.33;87.89;102097.84;4968845;28;20434;-54
2022/05/20 02:37:28;;;;;;;45.92;24.75;;;;;;;12.28;87.95;102095.63;4966092;28;20488;-55
2022/05/20 02:39:54;;;;;;;49.70;25.05;;;;;;;12.17;87.68;102103.84;4967722;28;20435;-53
2022/05/20 02:42:20;;;;;;;58.38;24.88;;;;;;;12.07;88.14;102101.22;4968469;28;20077;-56
2022/05/20 02:44:45;;;;;;;72.95;26.33;;;;;;;12.08;87.91;102105.56;4965429;28;20054;-53
2022/05/20 02:47:11;;;;;;;101.82;28.30;;;;;;;12.15;88.58;102099.66;4967718;28;20105;-53
2022/05/20 02:49:37;;;;;;;68.68;26.20;;;;;;;12.14;88.65;102098.78;4968043;28;20027;-56
2022/05/20 02:52:03;;;;;;;84.32;26.73;;;;;;;12.17;88.79;102095.03;4966801;28;20026;-55
2022/05/20 02:54:29;;;;;;;79.13;27.23;;;;;;;12.09;88.59;102101.91;4968338;28;20050;-56
2022/05/20 02:56:54;;;;;;;83.40;26.35;;;;;;;12.02;88.56;102095.50;4966156;28;20081;-54
2022/05/20 03:04:47;;;;;;;54.78;24.67;;;;;;;11.95;88.59;102094.44;4967502;28;20037;-55
2022/05/20 03:07:13;;;;;;;108.30;26.55;;;;;;;11.92;89.03;102081.44;4967592;28;20027;-54
2022/05/20 03:09:39;;;;;;;92.28;28.45;;;;;;;11.96;89.44;102084.63;4969327;28;20078;-55
2022/05/20 03:12:05;;;;;;;75.93;27.88;;;;;;;11.96;89.84;102088.13;4966219;28;20062;-54
2022/05/20 03:14:31;;;;;;;61.05;26.27;;;;;;;11.96;89.49;102081.97;4967795;28;20102;-55
2022/05/20 03:16:59;;;;;;;63.40;26.98;;;;;;;12.00;89.56;102089.50;4965858;28;20070;-54
2022/05/20 03:19:30;;;;;;;60.83;28.65;;;;;;;12.02;89.40;102079.53;4966664;28;21426;-52
2022/05/20 03:21:55;;;;;;;99.57;28.17;;;;;;;12.02;89.52;102081.38;4965691;28;20082;-56
2022/05/20 03:24:21;;;;;;;75.10;27.23;;;;;;;12.04;89.91;102074.91;4966807;28;20030;-54
2022/05/20 03:26:46;;;;;;;71.75;27.52;;;;;;;12.04;89.54;102079.38;4963099;28;20026;-55
2022/05/20 03:29:12;;;;;;;77.07;25.75;;;;;;;11.98;89.61;102078.16;4965758;28;20037;-56
2022/05/20 03:31:38;;;;;;;56.05;25.25;;;;;;;11.97;89.33;102075.66;4967156;28;20452;-55
2022/05/20 03:34:07;;;;;;;58.20;26.55;;;;;;;11.96;89.07;102071.31;4965647;28;20034;-56
2022/05/20 03:36:35;;;;;;;55.63;26.63;;;;;;;11.97;89.43;102078.31;4966750;28;20069;-54
2022/05/20 03:39:01;;;;;;;43.78;25.40;;;;;;;11.96;89.41;102073.97;4962009;28;20070;-54
2022/05/20 03:41:26;;;;;;;57.40;23.40;;;;;;;11.90;89.30;102095.88;4966265;28;20436;-55
2022/05/20 03:43:51;;;;;;;44.83;24.83;;;;;;;11.94;89.27;102095.44;4967838;28;20035;-55
2022/05/20 03:46:16;;;;;;;56.25;26.17;;;;;;;11.92;88.94;102094.75;4967376;28;20034;-55
2022/05/20 03:48:42;;;;;;;47.38;26.33;;;;;;;11.97;89.38;102097.78;4968213;28;20250;-54
2022/05/20 03:51:12;;;;;;;55.80;26.40;;;;;;;11.93;89.00;102100.91;4967892;28;20023;-54
2022/05/20 03:53:38;;;;;;;51.00;28.05;;;;;;;11.90;89.41;102099.38;4967170;28;20028;-53
2022/05/20 03:56:04;;;;;;;71.72;26.55;;;;;;;11.90;89.68;102096.72;4966427;28;20117;-55
2022/05/20 03:58:29;;;;;;;73.18;27.67;;;;;;;11.89;89.51;102097.69;4966353;28;20022;-55
2022/05/20 04:03:42;;;;;;;83.82;28.13;;;;;;;11.88;89.45;102074.72;4966711;28;20510;-55
2022/05/20 04:06:08;;;;;;;83.13;28.95;;;;;;;11.86;89.96;102068.72;4965614;28;20526;-52
2022/05/20 04:08:33;;;;;;;69.00;26.65;;;;;;;11.83;89.47;102055.69;4966003;28;20122;-53
2022/05/20 04:10:58;;;;;;;69.30;27.17;;;;;;;11.80;89.75;102042.69;4968011;28;20038;-53
2022/05/20 04:13:24;;;;;;;73.88;27.85;;;;;;;11.74;90.13;102040.59;4965831;28;20088;-54
2022/05/20 04:15:50;;;;;;;43.17;28.38;;;;;;;11.74;89.77;102057.38;4966747;28;20516;-54
2022/05/20 04:18:15;;;;;;;49.65;29.00;;;;;;;11.79;90.02;102056.97;4965014;28;20113;-55
2022/05/20 04:20:40;;;;;;;60.03;31.48;;;;;;;11.84;90.14;102046.72;4968294;28;20110;-54
2022/05/20 04:23:06;;;;;;;76.72;34.20;;;;;;;11.84;90.55;102041.38;4965517;28;20035;-53
2022/05/20 04:25:31;;;;;;;61.70;34.25;;;;;;;11.85;90.62;102040.41;4967634;28;20027;-55
2022/05/20 04:27:56;;;;;;;54.47;31.42;;;;;;;11.85;90.90;102037.75;4964388;28;20439;-55
2022/05/20 04:30:21;;;;;;;54.38;34.92;;;;;;;11.87;90.87;102046.44;4965842;28;20082;-55
2022/05/20 04:32:47;;;;;;;48.30;36.15;;;;;;;11.93;91.28;102045.00;4964984;28;20022;-56
2022/05/20 04:35:12;;;;;;;48.92;34.40;;;;;;;11.95;91.47;102056.34;4967084;28;20027;-53
2022/05/20 04:37:37;;;;;;;51.22;34.47;;;;;;;11.99;91.01;102047.06;4965444;28;20093;-54
2022/05/20 04:40:03;;;;;;;42.58;36.60;;;;;;;12.05;91.69;102054.44;4967913;28;20019;-55
2022/05/20 04:47:56;;;;;;;41.13;32.50;;;;;;;12.19;91.32;102051.28;4965053;28;20097;-52
2022/05/20 04:50:22;;;;;;;38.88;32.63;;;;;;;12.21;91.17;102062.59;4964226;28;20512;-54
2022/05/20 04:52:47;;;;;;;45.42;32.65;;;;;;;12.26;91.23;102051.50;4964810;28;20043;-54
2022/05/20 04:55:12;;;;;;;43.15;34.92;;;;;;;12.35;91.28;102056.72;4964862;28;20030;-54
2022/05/20 04:57:43;;;;;;;41.95;33.92;;;;;;;12.44;91.42;102070.16;4964883;28;20081;-55
2022/05/20 05:00:15;;;;;;;45.08;35.33;;;;;;;12.51;91.29;102072.03;4969823;28;20446;-56
2022/05/20 05:02:41;;;;;;;56.30;36.08;;;;;;;12.45;91.34;102078.00;4962481;28;20026;-55
2022/05/20 05:05:09;;;;;;;44.60;34.92;;;;;;;12.54;91.17;102082.41;4963867;28;20042;-54
2022/05/20 05:07:43;;;;;;;47.00;35.38;;;;;;;12.59;91.46;102076.59;4966806;28;20046;-54
2022/05/20 05:10:10;;;;;;;49.22;35.45;;;;;;;12.62;91.32;102069.13;4964828;28;20034;-54
2022/05/20 05:12:35;;;;;;;46.20;35.25;;;;;;;12.64;91.10;102056.50;4965969;28;20034;-53
2022/05/20 05:15:00;;;;;;;48.30;36.15;;;;;;;12.70;91.27;102055.88;4964608;28;20023;-54
2022/05/20 05:20:14;;;;;;;45.45;36.75;;;;;;;12.77;91.52;102066.78;4961884;28;20142;-55
2022/05/20 05:22:40;;;;;;;42.75;36.65;;;;;;;12.82;91.40;102068.97;4965011;28;20054;-55
2022/05/20 05:25:06;;;;;;;47.90;36.88;;;;;;;12.89;91.46;102062.84;4963772;28;20153;-55
2022/05/20 05:27:31;;;;;;;46.50;37.70;;;;;;;12.97;91.67;102059.41;4969367;28;20102;-53
2022/05/20 05:29:56;;;;;;;46.05;37.97;;;;;;;13.01;91.61;102060.78;4965219;28;20125;-54
2022/05/20 05:32:22;;;;;;;44.65;37.30;;;;;;;13.06;91.80;102065.63;4965338;28;20038;-54
2022/05/20 05:34:47;;;;;;;42.60;36.85;;;;;;;13.08;91.72;102060.97;4966225;28;20018;-55
2022/05/20 05:37:12;;;;;;;45.45;37.42;;;;;;;13.16;91.58;102050.34;4972807;28;20117;-52
2022/05/20 05:39:38;;;;;;;43.47;35.97;;;;;;;13.18;92.29;102054.56;4962670;28;20058;-55
2022/05/20 05:42:04;;;;;;;44.42;35.65;;;;;;;13.19;92.22;102042.06;4974265;28;20507;-54
2022/05/20 05:44:30;;;;;;;45.67;35.72;;;;;;;13.28;91.93;102041.94;4968197;28;20030;-53
2022/05/20 05:46:55;;;;;;;42.25;35.22;;;;;;;13.37;92.22;102040.19;4966762;28;20046;-54
2022/05/20 05:49:21;;;;;;;43.08;35.10;;;;;;;13.42;92.14;102034.34;4969156;28;20113;-54
2022/05/20 05:51:47;;;;;;;43.67;35.55;;;;;;;13.47;91.93;102027.53;4969914;28;20038;-54
2022/05/20 05:54:12;;;;;;;43.42;33.70;;;;;;;13.53;92.07;102036.72;4969298;28;20041;-55
2022/05/20 05:56:38;;;;;;;44.08;34.42;;;;;;;13.65;91.92;102032.78;4968008;28;20396;-55
2022/05/20 05:59:04;;;;;;;41.45;32.25;;;;;;;13.74;92.16;102036.31;4965979;28;20018;-52
2022/05/20 06:01:30;;;;;;;44.03;30.23;;;;;;;13.85;91.98;102036.00;4969563;28;20496;-55
2022/05/20 06:03:55;;;;;;;36.28;28.05;;;;;;;13.91;91.48;102030.03;4967942;28;20057;-53
2022/05/20 06:06:20;;;;;;;40.03;28.52;;;;;;;13.99;91.01;102029.22;4972741;28;20096;-55
2022/05/20 06:08:46;;;;;;;36.80;26.88;;;;;;;14.08;90.64;102038.91;4968813;28;20424;-55
2022/05/20 06:11:12;;;;;;;32.95;25.10;;;;;;;14.13;90.34;102044.59;4969457;28;20031;-53
2022/05/20 06:13:37;;;;;;;35.83;27.20;;;;;;;14.25;89.74;102032.59;4975309;28;20034;-53
2022/05/20 06:16:03;;;;;;;36.67;27.63;;;;;;;14.37;89.56;102033.94;4980030;28;20178;-55
2022/05/20 06:18:28;;;;;;;35.92;25.33;;;;;;;14.45;89.41;102027.78;4970372;28;20172;-53
2022/05/20 06:20:54;;;;;;;35.38;25.95;;;;;;;14.50;88.87;102031.66;4972326;28;20118;-53
2022/05/20 06:23:19;;;;;;;39.83;27.00;;;;;;;14.56;88.57;102033.66;4973294;28;20027;-56
2022/05/20 06:25:45;;;;;;;38.00;25.45;;;;;;;14.60;88.04;102020.78;4971926;28;20384;-54
2022/05/20 06:28:14;;;;;;;37.35;27.30;;;;;;;14.67;87.65;102021.75;4972376;28;20038;-54
2022/05/20 06:30:40;;;;;;;37.42;26.70;;;;;;;14.73;87.71;102023.75;4973604;28;20389;-54
2022/05/20 06:33:06;;;;;;;35.25;23.48;;;;;;;14.80;87.20;102022.09;4971414;28;20105;-54
2022/05/20 06:41:00;;;;;;;28.25;20.38;;;;;;;14.90;84.33;102010.38;4969212;28;20400;-55
2022/05/20 06:43:26;;;;;;;27.48;18.48;;;;;;;14.95;83.96;102002.66;4970337;28;20035;-54
2022/05/20 06:45:57;;;;;;;28.90;18.17;;;;;;;14.99;82.61;102004.81;4973282;28;20022;-54
2022/05/20 06:48:42;;;;;;;29.58;18.88;;;;;;;15.08;82.86;102006.50;4974705;28;20034;-55
2022/05/20 06:51:10;;;;;;;21.75;18.00;;;;;;;15.22;82.70;102010.28;4971534;28;20036;-55
2022/05/20 06:53:35;;;;;;;21.83;13.88;;;;;;;15.25;81.60;102009.09;4972454;28;20034;-55
2022/05/20 06:56:00;;;;;;;23.20;14.70;;;;;;;15.24;80.50;102005.59;4968099;28;20359;-55
2022/05/20 06:58:26;;;;;;;21.17;14.68;;;;;;;15.32;80.14;102010.06;4971585;28;20457;-55
2022/05/20 07:00:51;;;;;;;23.13;14.18;;;;;;;15.38;79.56;102006.72;4972475;28;20031;-52
2022/05/20 07:03:19;;;;;;;21.20;14.88;;;;;;;15.46;79.11;102001.34;4970956;28;20027;-55
2022/05/20 07:05:45;;;;;;;20.87;14.90;;;;;;;15.54;78.64;101987.91;4972040;28;20045;-53
2022/05/20 07:08:11;;;;;;;24.73;15.25;;;;;;;15.62;78.60;101985.22;4971466;28;20477;-55
2022/05/20 07:10:36;;;;;;;25.35;16.98;;;;;;;15.76;78.53;101980.97;4971915;28;20031;-53
2022/05/20 07:13:01;;;;;;;22.58;15.80;;;;;;;15.86;78.51;101975.34;4971229;28;20488;-56
2022/05/20 07:15:27;;;;;;;20.33;14.57;;;;;;;15.88;78.08;101968.81;4972307;28;20077;-55
2022/05/20 07:17:52;;;;;;;18.15;12.90;;;;;;;15.93;77.04;101970.97;4969774;28;20519;-55
2022/05/20 07:20:17;;;;;;;18.65;12.50;;;;;;;16.00;76.69;101966.56;4971626;28;20082;-56
2022/05/20 07:22:42;;;;;;;19.65;12.77;;;;;;;16.05;75.79;101967.69;4971946;28;20520;-53
2022/05/20 07:25:08;;;;;;;17.10;11.57;;;;;;;16.07;74.45;101962.16;4971950;28;20037;-53
2022/05/20 07:27:34;;;;;;;18.80;13.07;;;;;;;16.11;74.21;101958.94;4969277;28;20034;-54
2022/05/20 07:29:59;;;;;;;21.52;13.57;;;;;;;16.17;74.14;101949.34;4971496;28;20023;-55
2022/05/20 07:32:25;;;;;;;18.80;12.85;;;;;;;16.24;73.58;101952.97;4971978;28;20027;-53
2022/05/20 07:34:50;;;;;;;18.08;12.90;;;;;;;16.30;73.79;101940.69;4970636;28;20031;-56
2022/05/20 07:37:15;;;;;;;20.30;11.48;;;;;;;16.37;73.48;101934.44;4965643;28;20039;-56
2022/05/20 07:39:41;;;;;;;15.45;11.38;;;;;;;16.47;72.89;101941.38;4971897;28;20015;-55
2022/05/20 07:42:06;;;;;;;15.65;11.00;;;;;;;16.57;72.97;101944.63;4970377;28;20027;-55
2022/05/20 07:44:33;;;;;;;16.42;11.35;;;;;;;16.66;72.60;101943.56;4970417;28;20435;-54
2022/05/20 07:46:59;;;;;;;19.88;11.95;;;;;;;16.77;72.36;101931.53;4970325;28;20102;-53
2022/05/20 07:49:24;;;;;;;21.25;11.15;;;;;;;16.83;72.02;101928.97;4971188;28;20114;-52
2022/05/20 07:51:55;;;;;;;17.70;10.68;;;;;;;16.82;70.82;101930.00;4971675;28;20027;-54
2022/05/20 07:54:24;;;;;;;13.68;10.35;;;;;;;16.87;70.96;101932.94;4971372;28;20037;-54
2022/05/20 07:56:57;;;;;;;19.63;10.85;;;;;;;16.98;71.07;101934.31;4970754;28;20022;-55
2022/05/20 07:59:35;;;;;;;15.13;11.02;;;;;;;17.02;70.55;101931.06;4968201;28;20118;-54
2022/05/20 08:02:01;;;;;;;18.10;11.57;;;;;;;17.16;71.10;101924.03;4968236;28;20030;-53
2022/05/20 08:07:34;;;;;;;18.77;12.93;;;;;;;17.35;70.31;101917.25;4970351;28;20454;-55
2022/05/20 08:10:21;;;;;;;16.98;12.50;;;;;;;17.41;70.41;101918.34;4971240;28;20504;-55
2022/05/20 08:12:46;;;;;;;17.98;13.27;;;;;;;17.51;70.65;101908.13;4965278;28;20039;-55
2022/05/20 08:15:13;;;;;;;24.35;11.05;;;;;;;17.50;69.42;101903.78;4970808;28;20033;-52
2022/05/20 08:17:40;;;;;;;17.75;11.18;;;;;;;17.53;68.80;101898.84;4970031;28;20476;-55
2022/05/20 08:20:21;;;;;;;15.43;10.95;;;;;;;17.57;68.11;101900.13;4970086;28;20019;-55
2022/05/20 08:22:47;;;;;;;18.52;11.32;;;;;;;17.63;68.10;101901.22;4967454;28;20050;-55
2022/05/20 08:25:13;;;;;;;18.83;12.50;;;;;;;17.66;67.48;101898.16;4970635;28;20026;-54
2022/05/20 08:27:38;;;;;;;16.73;11.88;;;;;;;17.71;67.92;101894.94;4969512;28;20642;-52
2022/05/20 08:30:10;;;;;;;16.67;10.40;;;;;;;17.69;67.33;101889.75;4970247;28;20023;-55
2022/05/20 08:32:36;;;;;;;19.48;11.20;;;;;;;17.74;67.01;101881.94;4970576;28;20034;-54
2022/05/20 08:35:03;;;;;;;19.88;11.23;;;;;;;17.79;66.68;101892.13;4969849;28;20022;-54
2022/05/20 08:37:29;;;;;;;18.40;11.65;;;;;;;17.82;66.54;101894.41;4969465;28;20022;-55
2022/05/20 08:39:55;;;;;;;15.80;11.10;;;;;;;17.80;66.26;101886.53;4970663;28;20021;-56
2022/05/20 08:42:23;;;;;;;13.40;11.30;;;;;;;17.81;66.01;101873.94;4965307;28;20037;-54
2022/05/20 08:44:49;;;;;;;16.58;11.18;;;;;;;17.94;65.49;101874.06;4967812;28;20445;-55
2022/05/20 08:47:24;;;;;;;13.82;10.73;;;;;;;17.99;64.69;101860.06;4969943;28;20030;-54
2022/05/20 08:49:57;;;;;;;17.48;11.48;;;;;;;18.06;64.66;101852.88;4967170;28;20093;-55
2022/05/20 08:52:22;;;;;;;17.95;11.70;;;;;;;18.08;64.51;101838.19;4970607;28;20089;-54
2022/05/20 08:54:47;;;;;;;15.40;11.90;;;;;;;18.10;64.38;101828.06;4970420;28;20030;-53
2022/05/20 08:57:24;;;;;;;17.92;10.73;;;;;;;18.27;64.92;101820.56;4968461;28;20181;-54
2022/05/20 08:59:50;;;;;;;20.15;11.38;;;;;;;18.44;64.28;101818.34;4966745;28;20030;-54
2022/05/20 09:02:15;;;;;;;15.77;10.68;;;;;;;18.54;64.30;101803.53;4969196;28;20118;-55
2022/05/20 09:04:41;;;;;;;18.15;11.50;;;;;;;18.62;63.57;101805.25;4968877;28;20022;-53
2022/05/20 09:07:10;;;;;;;15.98;11.80;;;;;;;18.70;63.63;101802.38;4967645;28;20026;-52
2022/05/20 09:09:38;;;;;;;;;;;;;;;18.82;63.75;101790.03;4969865;28;20026;-55
2022/05/20 09:12:03;;;;;;;19.08;12.35;;;;;;;18.86;63.10;101796.66;4970025;28;19977;-53
2022/05/20 09:17:24;;;;;;;15.02;11.32;;;;;;;19.07;62.91;101797.53;4968292;28;20089;-55
2022/05/20 09:20:02;;;;;;;15.15;11.15;;;;;;;19.21;62.78;101810.00;4969606;28;20019;-55
2022/05/20 09:22:38;;;;;;;16.90;11.27;;;;;;;19.23;62.32;101804.41;4968139;28;20041;-53
2022/05/20 09:25:20;;;;;;;16.48;11.23;;;;;;;19.31;62.72;101796.13;4967831;28;20281;-56
2022/05/20 09:27:46;;;;;;;15.55;11.23;;;;;;;19.35;62.31;101792.81;4967473;28;20031;-53
2022/05/20 09:30:14;;;;;;;17.92;12.18;;;;;;;19.59;62.50;101785.22;4970169;28;20030;-54
2022/05/20 09:32:47;;;;;;;16.95;11.88;;;;;;;19.72;62.12;101791.44;4969337;28;20566;-53
2022/05/20 09:35:18;;;;;;;16.98;11.90;;;;;;;19.79;61.41;101769.88;4971776;28;20029;-54
2022/05/20 09:37:50;;;;;;;15.93;11.57;;;;;;;19.82;61.15;101753.28;4975370;28;20440;-53
2022/05/20 09:40:36;;;;;;;16.55;11.98;;;;;;;19.74;60.95;101757.03;4976115;28;20034;-55
2022/05/20 09:43:08;;;;;;;15.38;11.90;;;;;;;19.63;60.59;101741.47;4971381;28;20369;-54
2022/05/20 09:45:48;;;;;;;18.38;12.57;;;;;;;19.70;61.94;101746.88;4975872;28;20033;-55
2022/05/20 09:48:20;;;;;;;16.80;11.65;;;;;;;19.74;61.45;101748.13;4972105;28;20589;-55
2022/05/20 09:51:02;;;;;;;17.58;11.93;;;;;;;19.83;61.94;101752.25;4974296;28;20033;-53
2022/05/20 09:53:37;;;;;;;17.20;11.48;;;;;;;19.72;61.48;101740.25;4976180;28;20049;-55
2022/05/20 09:56:33;;;;;;;16.40;11.18;;;;;;;19.72;61.23;101728.63;4975447;28;20022;-55
2022/05/20 09:59:17;;;;;;;15.82;10.30;;;;;;;19.74;61.06;101711.22;4958201;28;20567;-55
2022/05/20 10:01:54;;;;;;;20.65;11.25;;;;;;;19.70;60.95;101707.28;4972495;28;20057;-52
2022/05/20 10:04:30;;;;;;;16.38;9.82;;;;;;;19.65;60.79;101698.97;4973220;28;20431;-53
2022/05/20 10:06:59;;;;;;;16.63;9.90;;;;;;;19.60;60.57;101679.09;4975184;28;20018;-55
2022/05/20 10:09:35;;;;;;;17.75;10.75;;;;;;;19.57;60.81;101660.66;4973656;28;20144;-52
2022/05/20 10:12:07;;;;;;;17.27;10.90;;;;;;;19.65;60.66;101660.41;4973261;28;20054;-53
2022/05/20 10:14:41;;;;;;;13.43;10.15;;;;;;;19.66;60.45;101662.06;4971205;28;20038;-54
2022/05/20 10:17:20;;;;;;;17.33;9.75;;;;;;;19.71;60.45;101660.44;4975467;28;20038;-55
2022/05/20 10:19:57;;;;;;;13.10;10.48;;;;;;;19.89;61.03;101645.44;4966601;28;20057;-55
2022/05/20 10:22:43;;;;;;;16.20;11.05;;;;;;;20.05;60.85;101623.41;4969901;28;20503;-54
2022/05/20 10:25:17;;;;;;;15.05;10.32;;;;;;;20.18;60.94;101625.19;4969977;28;20073;-53
2022/05/20 10:28:13;;;;;;;17.13;10.57;;;;;;;20.17;60.57;101627.06;4968757;28;20480;-52
2022/05/20 10:33:45;;;;;;;14.02;10.60;;;;;;;19.95;59.95;101599.59;4962484;28;20045;-54
2022/05/20 10:36:46;;;;;;;15.68;10.27;;;;;;;19.92;60.61;101591.91;4976385;28;20451;-55
2022/05/20 10:39:25;;;;;;;20.23;11.68;;;;;;;19.88;60.44;101579.91;4972419;28;20118;-53
2022/05/20 10:42:11;;;;;;;17.58;11.82;;;;;;;19.87;60.90;101566.66;4974839;28;20073;-54
2022/05/20 10:50:32;;;;;;;18.80;13.20;;;;;;;19.95;61.86;101556.47;4968347;28;20057;-53
2022/05/20 10:53:19;;;;;;;20.35;12.63;;;;;;;19.93;61.50;101538.81;4971393;28;20428;-53
2022/05/20 10:56:21;;;;;;;18.10;12.88;;;;;;;19.83;61.26;101506.13;4971006;28;20552;-53
2022/05/20 10:59:04;;;;;;;20.13;13.73;;;;;;;19.81;62.12;101495.56;4969456;28;20041;-55
2022/05/20 11:02:11;;;;;;;21.33;13.18;;;;;;;19.89;62.06;101479.13;4971790;28;20113;-53
2022/05/20 11:04:44;;;;;;;23.08;13.32;;;;;;;19.94;62.23;101462.28;4958415;28;20055;-54
2022/05/20 11:07:37;;;;;;;20.73;13.65;;;;;;;19.97;62.45;101443.00;4972656;28;20038;-54
2022/05/20 11:10:34;;;;;;;18.70;13.70;;;;;;;20.03;62.96;101431.34;4967730;28;20022;-54
2022/05/20 11:13:14;;;;;;;19.35;14.23;;;;;;;20.11;63.03;101414.91;4961903;28;20027;-54
2022/05/20 11:15:53;;;;;;;19.83;13.85;;;;;;;20.13;62.63;101406.59;4961765;28;20135;-54
2022/05/20 11:18:50;;;;;;;23.90;14.40;;;;;;;20.25;62.63;101431.81;4964271;28;20054;-54
2022/05/20 11:21:31;;;;;;;20.77;14.15;;;;;;;20.24;62.83;101427.44;4949948;28;20121;-52
2022/05/20 11:24:02;;;;;;;24.02;15.00;;;;;;;20.30;62.99;101421.19;4971635;28;20019;-54
2022/05/20 11:26:58;;;;;;;20.90;14.75;;;;;;;20.39;63.11;101423.38;4972241;28;20031;-55
2022/05/20 11:29:48;;;;;;;23.02;14.73;;;;;;;20.41;63.03;101415.91;4966929;28;20050;-53
2022/05/20 11:32:27;;;;;;;21.50;14.77;;;;;;;20.37;62.63;101409.28;4970197;28;20023;-55
2022/05/20 11:35:18;;;;;;;22.15;15.18;;;;;;;20.38;62.54;101391.22;4971638;28;20396;-54
2022/05/20 11:38:15;;;;;;;26.25;15.43;;;;;;;20.36;62.86;101375.25;4970196;28;20042;-53
2022/05/20 11:41:10;;;;;;;21.48;15.35;;;;;;;20.30;62.66;101375.31;4970180;28;20400;-53
2022/05/20 11:43:45;;;;;;;20.45;16.27;;;;;;;20.24;63.05;101365.41;4971403;28;20433;-53
2022/05/20 11:46:35;;;;;;;27.40;17.02;;;;;;;20.19;63.49;101359.84;4957766;28;20524;-55
2022/05/20 11:49:40;;;;;;;23.88;17.33;;;;;;;20.11;63.40;101369.06;4981400;28;20485;-52
2022/05/20 11:52:22;;;;;;;27.35;18.05;;;;;;;19.93;63.50;101364.41;4966405;28;20034;-53
2022/05/20 11:54:54;;;;;;;25.95;20.02;;;;;;;19.87;64.42;101348.28;4968867;28;20035;-53
2022/05/20 11:57:25;;;;;;;24.10;19.60;;;;;;;19.82;64.72;101343.56;4970117;28;20588;-54
2022/05/20 12:00:03;;;;;;;25.65;20.13;;;;;;;19.75;65.12;101340.09;4970528;28;20015;-53
2022/05/20 12:02:32;;;;;;;30.50;20.95;;;;;;;19.68;65.69;101337.47;4970495;28;20037;-56